Time;durP1;ratioP1;P1;durP2;ratioP2;P2;SDS_P1;SDS_P2;PMS_P1;PMS_P2;Temp;Humidity;BMP_temperature;BMP_pressure;BME280_temperature;BME280_humidity;BME280_pressure;Samples;Min_cycle;Max_cycle;Signal;HPM_P1;HPM_P2
2022/05/01 00:01:18;;;;;;;3.72;2.00;;;;;;;11.63;100.00;100657.22;7394707;19;20015;-56
2022/05/01 00:03:45;;;;;;;5.88;2.50;;;;;;;11.79;100.00;100648.59;7392939;19;20036;-56
2022/05/01 00:06:13;;;;;;;8.00;1.90;;;;;;;11.75;100.00;100652.78;7393504;19;20015;-56
2022/05/01 00:08:41;;;;;;;1.77;1.20;;;;;;;11.64;100.00;100641.28;7393572;19;20016;-56
2022/05/01 00:11:10;;;;;;;3.65;1.90;;;;;;;11.55;100.00;100642.03;7392237;19;20509;-56
2022/05/01 00:13:36;;;;;;;6.38;1.30;;;;;;;11.45;100.00;100640.50;7393116;19;20035;-56
2022/05/01 00:16:03;;;;;;;7.40;2.25;;;;;;;11.49;100.00;100649.47;7393021;19;20014;-56
2022/05/01 00:18:29;;;;;;;11.23;1.60;;;;;;;11.57;100.00;100641.56;7392844;19;20463;-56
2022/05/01 00:20:55;;;;;;;4.22;1.42;;;;;;;11.53;100.00;100635.38;7393738;19;20006;-56
2022/05/01 00:23:22;;;;;;;4.13;1.55;;;;;;;11.64;100.00;100641.28;7388508;19;20031;-83
2022/05/01 00:25:48;;;;;;;2.17;2.03;;;;;;;11.70;100.00;100631.84;7389343;19;20050;-85
2022/05/01 00:28:15;;;;;;;7.72;1.55;;;;;;;11.80;100.00;100633.41;7388763;19;20058;-85
2022/05/01 00:30:42;;;;;;;5.47;1.67;;;;;;;11.77;100.00;100628.75;7391348;19;20018;-83
2022/05/01 00:38:42;;;;;;;4.57;1.67;;;;;;;11.71;100.00;100625.03;7392669;19;20025;-83
2022/05/01 00:41:09;;;;;;;4.57;1.70;;;;;;;11.67;100.00;100618.06;7398922;19;20014;-87
2022/05/01 00:43:56;;;;;;;5.65;2.25;;;;;;;11.65;100.00;100621.28;7395392;19;20022;-86
2022/05/01 00:46:25;;;;;;;4.78;2.55;;;;;;;11.55;100.00;100605.78;7396446;19;20022;-87
2022/05/01 00:48:52;;;;;;;8.55;2.75;;;;;;;11.45;100.00;100607.00;7396774;19;20011;-87
2022/05/01 00:51:20;;;;;;;6.75;2.38;;;;;;;11.37;100.00;100605.75;7398463;19;20017;-88
2022/05/01 00:53:48;;;;;;;2.83;0.98;;;;;;;11.38;100.00;100604.53;7396707;19;20015;-88
2022/05/01 00:56:16;;;;;;;3.55;1.10;;;;;;;11.41;100.00;100600.81;7398676;19;20018;-88
2022/05/01 00:58:43;;;;;;;3.45;1.88;;;;;;;11.41;100.00;100598.03;7397717;19;20011;-89
2022/05/01 01:01:14;;;;;;;6.07;1.70;;;;;;;11.37;100.00;100605.75;7399451;19;20021;-87
2022/05/01 01:03:40;;;;;;;5.93;2.70;;;;;;;11.38;100.00;100601.72;7394650;19;20023;-89
2022/05/01 01:06:07;;;;;;;4.25;1.60;;;;;;;11.36;100.00;100604.22;7396794;19;20014;-88
2022/05/01 01:08:33;;;;;;;1.98;1.55;;;;;;;11.35;100.00;100603.44;7395116;19;20019;-88
2022/05/01 01:10:59;;;;;;;4.50;1.60;;;;;;;11.33;100.00;100600.31;7398739;19;20017;-88
2022/05/01 01:13:27;;;;;;;4.78;1.55;;;;;;;11.33;100.00;100602.34;7394853;19;20014;-87
2022/05/01 01:15:54;;;;;;;4.30;2.40;;;;;;;11.32;100.00;100603.59;7397022;19;20018;-89
2022/05/01 01:18:21;;;;;;;2.10;0.73;;;;;;;11.38;100.00;100590.56;7395940;19;20014;-88
2022/05/01 01:20:47;;;;;;;2.75;1.75;;;;;;;11.42;100.00;100594.00;7398842;19;20010;-88
2022/05/01 01:23:13;;;;;;;6.93;1.48;;;;;;;11.43;100.00;100592.75;7395103;19;20010;-88
2022/05/01 01:25:40;;;;;;;2.85;1.67;;;;;;;11.42;100.00;100591.19;7392998;19;20427;-88
2022/05/01 01:28:08;;;;;;;4.97;1.42;;;;;;;11.40;100.00;100594.47;7395575;19;20039;-88
2022/05/01 01:33:23;;;;;;;2.95;1.85;;;;;;;11.36;100.00;100587.47;7395508;19;20010;-89
2022/05/01 01:35:51;;;;;;;15.98;1.90;;;;;;;11.39;100.00;100594.94;7396786;19;20015;-89
2022/05/01 01:38:17;;;;;;;4.88;1.50;;;;;;;11.42;100.00;100585.63;7395624;19;20441;-89
2022/05/01 01:40:54;;;;;;;5.38;2.20;;;;;;;11.45;100.00;100587.50;7397053;19;20006;-88
2022/05/01 01:43:28;;;;;;;3.05;1.60;;;;;;;11.43;100.00;100587.94;7392780;19;20085;-88
2022/05/01 01:45:56;;;;;;;3.63;1.90;;;;;;;11.41;100.00;100584.84;7395995;19;20006;-88
2022/05/01 01:48:23;;;;;;;3.35;1.17;;;;;;;11.41;100.00;100579.25;7396168;19;20018;-88
2022/05/01 01:51:01;;;;;;;3.90;2.15;;;;;;;11.39;100.00;100584.53;7396199;19;20021;-88
2022/05/01 01:53:29;;;;;;;5.47;2.17;;;;;;;11.39;100.00;100575.41;7394460;19;20022;-89
2022/05/01 01:55:59;;;;;;;7.22;1.58;;;;;;;11.41;100.00;100572.94;7396142;19;20018;-88
2022/05/01 01:58:27;;;;;;;13.93;2.38;;;;;;;11.43;100.00;100570.44;7398279;19;20111;-89
2022/05/01 02:00:54;;;;;;;5.40;1.75;;;;;;;11.44;100.00;100569.19;7396639;19;20002;-89
2022/05/01 02:03:22;;;;;;;8.60;1.83;;;;;;;11.46;100.00;100569.50;7392495;19;20378;-88
2022/05/01 02:05:49;;;;;;;2.65;1.73;;;;;;;11.44;100.00;100560.81;7393613;19;20015;-89
2022/05/01 02:08:16;;;;;;;3.47;1.02;;;;;;;11.43;100.00;100564.88;7396119;19;20468;-89
2022/05/01 02:10:49;;;;;;;2.25;1.60;;;;;;;11.41;100.00;100561.78;7395143;19;20010;-88
2022/05/01 02:13:16;;;;;;;3.45;0.95;;;;;;;11.38;100.00;100560.69;7392336;19;20048;-88
2022/05/01 02:15:43;;;;;;;8.63;1.67;;;;;;;11.42;100.00;100568.88;7394097;19;20014;-87
2022/05/01 02:18:09;;;;;;;3.35;1.80;;;;;;;11.41;100.00;100550.63;7402440;19;20010;-87
2022/05/01 02:23:23;;;;;;;4.45;2.13;;;;;;;11.38;100.00;100552.31;7400795;19;20010;-89
2022/05/01 02:25:50;;;;;;;5.25;2.15;;;;;;;11.40;100.00;100551.84;7404752;19;20014;-89
2022/05/01 02:28:17;;;;;;;4.10;1.50;;;;;;;11.37;100.00;100549.97;7404463;19;20011;-89
2022/05/01 02:30:44;;;;;;;5.40;2.60;;;;;;;11.35;100.00;100546.88;7404021;19;20014;-89
2022/05/01 02:33:10;;;;;;;5.55;1.48;;;;;;;11.32;100.00;100539.47;7402029;19;20014;-89
2022/05/01 02:35:38;;;;;;;5.68;1.38;;;;;;;11.27;100.00;100546.41;7402769;19;20046;-90
2022/05/01 02:38:05;;;;;;;4.22;1.73;;;;;;;11.28;100.00;100536.06;7400853;19;20026;-89
2022/05/01 02:40:34;;;;;;;1.85;1.60;;;;;;;11.28;100.00;100547.19;7401297;19;20010;-90
2022/05/01 02:43:00;;;;;;;11.57;2.10;;;;;;;11.28;100.00;100542.38;7399765;19;20042;-89
2022/05/01 02:45:28;;;;;;;2.30;1.58;;;;;;;11.26;100.00;100538.53;7400655;19;20032;-89
2022/05/01 02:47:55;;;;;;;3.03;1.25;;;;;;;11.24;100.00;100536.19;7398937;19;20014;-89
2022/05/01 02:50:22;;;;;;;2.63;1.60;;;;;;;11.24;100.00;100527.06;7402646;19;20014;-89
2022/05/01 02:52:51;;;;;;;3.13;2.10;;;;;;;11.21;100.00;100536.34;7399312;19;20015;-89
2022/05/01 02:55:19;;;;;;;3.22;0.98;;;;;;;11.17;100.00;100524.56;7400477;19;20549;-89
2022/05/01 02:57:45;;;;;;;2.67;1.55;;;;;;;11.18;100.00;100517.75;7402140;19;20010;-89
2022/05/01 03:00:16;;;;;;;4.68;0.95;;;;;;;11.07;100.00;100520.22;7401707;19;20014;-89
2022/05/01 03:02:47;;;;;;;7.75;1.88;;;;;;;11.05;100.00;100514.31;7400217;19;20007;-89
2022/05/01 03:05:14;;;;;;;3.78;1.73;;;;;;;10.99;100.00;100518.97;7401344;19;20021;-89
2022/05/01 03:07:40;;;;;;;1.80;1.25;;;;;;;10.95;100.00;100509.97;7399768;19;20021;-89
2022/05/01 03:10:08;;;;;;;3.78;1.50;;;;;;;10.93;100.00;100520.81;7400192;19;20048;-89
2022/05/01 03:12:34;;;;;;;3.92;1.58;;;;;;;10.90;100.00;100518.94;7404911;19;20021;-88
2022/05/01 03:15:02;;;;;;;4.13;0.90;;;;;;;10.86;100.00;100526.69;7401764;19;20033;-89
2022/05/01 03:22:10;;;;;;;5.38;1.58;;;;;;;10.84;100.00;100529.16;7398977;19;20107;-88
2022/05/01 03:22:58;;;;;;;3.00;1.20;;;;;;;10.80;100.00;100522.97;7398026;19;20039;-87
2022/05/01 03:25:25;;;;;;;2.47;1.88;;;;;;;10.80;100.00;100520.16;7397512;19;20349;-87
2022/05/01 03:27:52;;;;;;;6.00;2.67;;;;;;;10.77;100.00;100521.09;7397551;19;20019;-87
2022/05/01 03:30:20;;;;;;;4.28;1.63;;;;;;;10.70;100.00;100513.78;7399768;19;20014;-86
2022/05/01 03:32:46;;;;;;;8.75;2.35;;;;;;;10.64;100.00;100510.84;7396830;19;20095;-86
2022/05/01 03:35:14;;;;;;;4.28;2.70;;;;;;;10.61;100.00;100514.53;7398426;19;20046;-86
2022/05/01 03:37:41;;;;;;;4.95;2.03;;;;;;;10.57;100.00;100504.78;7398177;19;20018;-86
2022/05/01 03:40:12;;;;;;;6.63;1.58;;;;;;;10.55;100.00;100513.59;7400012;19;20027;-86
2022/05/01 03:42:38;;;;;;;4.13;1.15;;;;;;;10.55;100.00;100501.69;7401495;19;20018;-86
2022/05/01 03:45:04;;;;;;;6.45;1.38;;;;;;;10.54;100.00;100500.94;7397917;19;20011;-85
2022/05/01 03:47:32;;;;;;;4.15;1.38;;;;;;;10.49;100.00;100504.31;7396983;19;20082;-85
2022/05/01 03:49:59;;;;;;;5.85;1.58;;;;;;;10.46;100.00;100501.66;7398092;19;20042;-84
2022/05/01 03:52:25;;;;;;;3.70;1.70;;;;;;;10.47;100.00;100500.41;7401225;19;20019;-85
2022/05/01 03:54:51;;;;;;;10.55;2.05;;;;;;;10.47;100.00;100495.63;7396453;19;20026;-85
2022/05/01 03:57:17;;;;;;;3.20;1.25;;;;;;;10.47;100.00;100490.06;7396925;19;20394;-81
2022/05/01 03:59:46;;;;;;;13.93;1.90;;;;;;;10.46;100.00;100488.50;7401271;19;20015;-85
2022/05/01 04:02:16;;;;;;;2.53;0.82;;;;;;;10.44;100.00;100485.41;7401449;19;20015;-86
2022/05/01 04:04:48;;;;;;;5.85;1.33;;;;;;;10.43;100.00;100483.88;7399056;19;20082;-89
2022/05/01 04:07:14;;;;;;;5.90;2.00;;;;;;;10.39;100.00;100477.66;7397590;19;20007;-90
2022/05/01 04:09:41;;;;;;;5.43;2.00;;;;;;;10.39;100.00;100477.66;7397605;19;20086;-87
2022/05/01 04:12:07;;;;;;;9.02;1.90;;;;;;;10.43;100.00;100471.94;7399749;19;20018;-82
2022/05/01 04:14:34;;;;;;;8.50;3.10;;;;;;;10.40;100.00;100476.41;7394917;19;20022;-84
2022/05/01 04:17:00;;;;;;;3.97;1.58;;;;;;;10.38;100.00;100478.91;7395520;19;20018;-85
2022/05/01 04:19:28;;;;;;;2.03;1.20;;;;;;;10.39;100.00;100476.88;7395945;19;20010;-84
2022/05/01 04:21:55;;;;;;;4.25;2.28;;;;;;;10.38;100.00;100478.13;7398536;19;20069;-84
2022/05/01 04:24:23;;;;;;;3.45;1.73;;;;;;;10.36;100.00;100486.16;7396865;19;20035;-89
2022/05/01 04:26:49;;;;;;;8.70;1.67;;;;;;;10.37;100.00;100491.25;7395268;19;20022;-88
2022/05/01 04:32:00;;;;;;;1.48;0.98;;;;;;;10.36;100.00;100486.16;7399051;19;20477;-89
2022/05/01 04:34:27;;;;;;;2.55;0.88;;;;;;;10.33;100.00;100479.50;7396650;19;20018;-88
2022/05/01 04:36:53;;;;;;;5.32;1.23;;;;;;;10.31;100.00;100481.94;7393863;19;20457;-83
2022/05/01 04:39:19;;;;;;;4.90;1.92;;;;;;;10.26;100.00;100473.44;7391874;19;20552;-86
2022/05/01 04:41:46;;;;;;;6.00;1.00;;;;;;;10.21;100.00;100483.16;7396351;19;20086;-86
2022/05/01 04:44:12;;;;;;;5.57;1.50;;;;;;;10.20;100.00;100476.03;7393846;19;20549;-83
2022/05/01 04:46:38;;;;;;;4.30;1.42;;;;;;;10.18;100.00;100478.50;7394739;19;20014;-85
2022/05/01 04:49:04;;;;;;;2.30;1.38;;;;;;;10.18;100.00;100472.94;7395549;19;20022;-83
2022/05/01 04:51:31;;;;;;;2.38;1.25;;;;;;;10.16;100.00;100461.50;7397130;19;20021;-85
2022/05/01 04:53:57;;;;;;;1.23;0.90;;;;;;;10.20;100.00;100470.47;7390587;19;20010;-82
2022/05/01 04:59:08;;;;;;;1.10;0.85;;;;;;;10.20;100.00;100464.16;7398751;19;20013;-84
2022/05/01 05:01:35;;;;;;;1.88;1.10;;;;;;;10.24;100.00;100471.13;7397407;19;20025;-84
2022/05/01 05:04:03;;;;;;;2.72;0.80;;;;;;;10.27;100.00;100464.63;7393054;19;20027;-87
2022/05/01 05:06:30;;;;;;;4.43;1.38;;;;;;;10.29;100.00;100461.38;7393982;19;20015;-84
2022/05/01 05:11:41;;;;;;;0.98;0.80;;;;;;;10.26;100.00;100465.88;7398318;19;20047;-87
2022/05/01 05:14:07;;;;;;;1.52;0.80;;;;;;;10.25;100.00;100464.31;7392622;19;20019;-86
2022/05/01 05:16:33;;;;;;;4.68;1.30;;;;;;;10.27;100.00;100467.41;7395574;19;20015;-79
2022/05/01 05:19:00;;;;;;;2.03;1.10;;;;;;;10.31;100.00;100459.69;7389748;19;20015;-83
2022/05/01 05:21:26;;;;;;;3.15;1.35;;;;;;;10.29;100.00;100470.50;7394755;19;20015;-84
2022/05/01 05:23:54;;;;;;;5.57;1.25;;;;;;;10.28;100.00;100463.41;7393064;19;20015;-85
2022/05/01 05:26:20;;;;;;;3.40;1.48;;;;;;;10.32;100.00;100466.03;7393215;19;20688;-84
2022/05/01 05:28:46;;;;;;;4.45;1.23;;;;;;;10.33;100.00;100467.59;7397429;19;20505;-85
2022/05/01 05:31:12;;;;;;;0.63;0.63;;;;;;;10.33;100.00;100468.34;7395236;19;20033;-85
2022/05/01 05:33:38;;;;;;;1.98;1.27;;;;;;;10.28;100.00;100457.06;7391350;19;20015;-84
2022/05/01 05:36:05;;;;;;;1.02;0.80;;;;;;;10.32;100.00;100461.25;7393070;19;20014;-84
2022/05/01 05:38:33;;;;;;;0.73;0.73;;;;;;;10.36;100.00;100467.44;7392717;19;20014;-85
2022/05/01 05:41:00;;;;;;;2.33;0.90;;;;;;;10.40;100.00;100467.28;7390396;19;20026;-84
2022/05/01 05:43:26;;;;;;;1.10;0.90;;;;;;;10.40;100.00;100470.84;7389147;19;20015;-85
2022/05/01 05:45:52;;;;;;;1.20;0.90;;;;;;;10.46;100.00;100459.91;7393363;19;20035;-85
2022/05/01 05:48:19;;;;;;;2.15;1.70;;;;;;;10.47;100.00;100473.34;7392381;19;20014;-86
2022/05/01 05:50:45;;;;;;;5.32;1.48;;;;;;;10.47;100.00;100470.56;7392286;19;20074;-84
2022/05/01 05:53:11;;;;;;;4.88;1.45;;;;;;;10.49;100.00;100470.88;7390150;19;20018;-86
2022/05/01 05:55:37;;;;;;;0.95;0.70;;;;;;;10.47;100.00;100473.34;7391780;19;20014;-86
2022/05/01 05:58:03;;;;;;;1.55;1.08;;;;;;;10.45;100.00;100475.84;7391047;19;20055;-86
2022/05/01 06:00:30;;;;;;;2.50;1.58;;;;;;;10.44;100.00;100479.84;7391378;19;20014;-87
2022/05/01 06:02:56;;;;;;;4.85;0.82;;;;;;;10.43;100.00;100481.09;7391423;19;20018;-86
2022/05/01 06:05:22;;;;;;;2.03;1.15;;;;;;;10.44;100.00;100479.84;7392854;19;20377;-86
2022/05/01 06:07:48;;;;;;;0.88;0.88;;;;;;;10.49;100.00;100482.03;7390780;19;20037;-86
2022/05/01 06:10:14;;;;;;;2.13;1.17;;;;;;;10.52;100.00;100486.69;7391001;19;20014;-86
2022/05/01 06:12:41;;;;;;;3.72;0.68;;;;;;;10.55;100.00;100485.75;7397260;19;20034;-85
2022/05/01 06:15:08;;;;;;;2.10;0.70;;;;;;;10.56;100.00;100487.31;7391898;19;20018;-86
2022/05/01 06:17:35;;;;;;;4.97;1.95;;;;;;;10.55;100.00;100485.75;7391577;19;20488;-86
2022/05/01 06:20:01;;;;;;;2.47;1.35;;;;;;;10.53;100.00;100482.66;7391128;19;20023;-85
2022/05/01 06:22:27;;;;;;;2.83;0.85;;;;;;;10.45;100.00;100486.97;7395426;19;20620;-87
2022/05/01 06:24:53;;;;;;;2.35;0.98;;;;;;;10.48;100.00;100486.03;7391188;19;20011;-87
2022/05/01 06:27:19;;;;;;;2.25;0.75;;;;;;;10.53;100.00;100488.22;7391321;19;20055;-85
2022/05/01 06:29:45;;;;;;;1.13;1.02;;;;;;;10.56;100.00;100480.97;7396037;19;20018;-86
2022/05/01 06:32:17;;;;;;;0.50;0.50;;;;;;;10.56;100.00;100478.97;7394555;19;20026;-85
2022/05/01 06:34:45;;;;;;;1.27;0.80;;;;;;;10.54;100.00;100475.88;7391024;19;20046;-85
2022/05/01 06:37:12;;;;;;;4.30;1.10;;;;;;;10.53;100.00;100471.50;7391168;19;20021;-85
2022/05/01 06:39:39;;;;;;;2.50;0.65;;;;;;;10.61;100.00;100472.00;7391280;19;20019;-87
2022/05/01 06:42:05;;;;;;;1.52;0.90;;;;;;;10.60;100.00;100476.78;7393563;19;20039;-87
2022/05/01 06:44:32;;;;;;;1.75;1.00;;;;;;;10.59;100.00;100475.22;7391416;19;20014;-88
2022/05/01 06:46:58;;;;;;;3.08;0.98;;;;;;;10.56;100.00;100476.16;7389253;19;20019;-87
2022/05/01 06:49:24;;;;;;;3.15;1.52;;;;;;;10.59;100.00;100480.81;7389655;19;20015;-87
2022/05/01 06:51:50;;;;;;;3.25;1.40;;;;;;;10.59;100.00;100480.81;7393548;19;20597;-87
2022/05/01 06:54:16;;;;;;;1.95;0.82;;;;;;;10.55;100.00;100474.59;7390470;19;20395;-86
2022/05/01 06:56:44;;;;;;;0.85;0.60;;;;;;;10.50;100.00;100472.41;7389825;19;20025;-86
2022/05/01 06:59:11;;;;;;;1.45;0.80;;;;;;;10.54;100.00;100475.88;7392936;19;20488;-86
2022/05/01 07:01:37;;;;;;;1.92;0.47;;;;;;;10.56;100.00;100472.59;7393041;19;20043;-86
2022/05/01 07:04:03;;;;;;;13.25;1.40;;;;;;;10.63;100.00;100470.28;7398701;19;20011;-86
2022/05/01 07:06:29;;;;;;;4.22;1.10;;;;;;;10.68;100.00;100466.91;7399359;19;20017;-86
2022/05/01 07:08:55;;;;;;;3.85;1.73;;;;;;;10.79;100.00;100466.47;7400454;19;20021;-86
2022/05/01 07:11:21;;;;;;;3.75;1.25;;;;;;;10.79;100.00;100469.25;7400434;19;20022;-86
2022/05/01 07:13:48;;;;;;;3.47;1.67;;;;;;;10.84;100.00;100465.06;7396632;19;20019;-86
2022/05/01 07:16:14;;;;;;;2.20;1.05;;;;;;;10.88;100.00;100468.47;7399800;19;21335;-86
2022/05/01 07:18:40;;;;;;;3.67;1.05;;;;;;;10.86;100.00;100473.75;7396789;19;20447;-85
2022/05/01 07:21:06;;;;;;;2.00;0.77;;;;;;;10.85;100.00;100477.78;7399493;19;20090;-84
2022/05/01 07:23:32;;;;;;;3.10;0.90;;;;;;;10.85;100.00;100470.19;7397931;19;20014;-84
2022/05/01 07:25:58;;;;;;;5.32;1.70;;;;;;;10.89;100.00;100476.41;7402036;19;20018;-84
2022/05/01 07:28:25;;;;;;;2.88;1.33;;;;;;;10.96;100.00;100476.06;7398767;19;20540;-84
2022/05/01 07:30:51;;;;;;;2.95;0.73;;;;;;;10.96;100.00;100475.31;7399674;19;20034;-85
2022/05/01 07:33:17;;;;;;;3.72;0.80;;;;;;;10.98;100.00;100476.38;7394696;19;20027;-84
2022/05/01 07:35:43;;;;;;;4.45;1.35;;;;;;;11.02;100.00;100468.63;7398086;19;20022;-84
2022/05/01 07:38:09;;;;;;;0.85;0.70;;;;;;;11.13;100.00;100468.19;7397662;19;20010;-85
2022/05/01 07:40:36;;;;;;;2.47;1.33;;;;;;;11.29;100.00;100460.28;7397136;19;20022;-84
2022/05/01 07:43:02;;;;;;;1.95;1.08;;;;;;;11.41;100.00;100464.91;7393224;19;20035;-83
2022/05/01 07:45:28;;;;;;;3.45;1.35;;;;;;;11.55;100.00;100455.16;7396111;19;20011;-82
2022/05/01 07:47:54;;;;;;;1.80;1.30;;;;;;;11.61;100.00;100464.44;7395695;19;20027;-84
2022/05/01 07:50:21;;;;;;;5.25;1.27;;;;;;;11.69;100.00;100460.13;7397023;19;20339;-83
2022/05/01 07:52:47;;;;;;;3.22;1.33;;;;;;;11.86;100.00;100455.72;7398745;19;20025;-83
2022/05/01 07:55:13;;;;;;;3.03;1.10;;;;;;;11.85;100.00;100456.97;7397676;19;20033;-83
2022/05/01 07:57:39;;;;;;;1.30;0.52;;;;;;;11.82;100.00;100463.50;7394745;19;20341;-82
2022/05/01 08:00:06;;;;;;;6.75;1.60;;;;;;;11.86;100.00;100461.31;7392902;19;20015;-82
2022/05/01 08:02:35;;;;;;;6.10;1.85;;;;;;;11.94;100.00;100454.16;7396722;19;20026;-82
2022/05/01 08:05:01;;;;;;;1.35;1.15;;;;;;;12.10;100.00;100456.59;7394247;19;20476;-83
2022/05/01 08:07:27;;;;;;;3.08;1.40;;;;;;;12.17;100.00;100447.84;7393262;19;20018;-82
2022/05/01 08:09:53;;;;;;;4.53;1.65;;;;;;;12.16;100.00;100449.09;7393284;19;20373;-84
2022/05/01 08:12:19;;;;;;;1.45;0.90;;;;;;;12.36;100.00;100447.78;7398020;19;20010;-82
2022/05/01 08:14:46;;;;;;;4.55;1.88;;;;;;;12.49;100.00;100443.50;7391898;19;20026;-82
2022/05/01 08:17:12;;;;;;;3.05;0.90;;;;;;;12.61;100.00;100438.91;7393296;19;20011;-82
2022/05/01 08:22:43;;;;;;;2.13;1.33;;;;;;;12.80;100.00;100437.53;7387490;19;20026;-82
2022/05/01 08:25:09;;;;;;;3.97;1.38;;;;;;;12.92;100.00;100433.75;7389717;19;20022;-81
2022/05/01 08:27:36;;;;;;;5.18;1.52;;;;;;;13.03;100.00;100430.41;7389261;19;20018;-80
2022/05/01 08:30:02;;;;;;;3.88;1.58;;;;;;;13.11;100.00;100434.41;7395521;19;20015;-80
2022/05/01 08:32:28;;;;;;;1.00;0.93;;;;;;;13.05;100.00;100434.28;7393971;19;20015;-83
2022/05/01 08:34:55;;;;;;;3.50;1.45;;;;;;;12.97;100.00;100443.50;7391624;19;20014;-83
2022/05/01 08:37:21;;;;;;;3.83;1.55;;;;;;;12.88;100.00;100442.31;7394293;19;20038;-81
2022/05/01 08:39:47;;;;;;;3.92;2.10;;;;;;;12.92;100.00;100439.34;7388748;19;20019;-80
2022/05/01 08:42:13;;;;;;;2.88;1.58;;;;;;;12.96;100.00;100437.13;7396554;19;20029;-84
2022/05/01 08:44:39;;;;;;;1.67;0.95;;;;;;;12.96;100.00;100439.94;7394394;19;20035;-83
2022/05/01 08:47:22;;;;;;;5.78;1.42;;;;;;;13.05;100.00;100439.88;7393896;19;20018;-85
2022/05/01 08:49:58;;;;;;;5.53;1.60;;;;;;;13.16;100.00;100434.53;7394164;19;20021;-84
2022/05/01 08:58:35;;;;;;;3.78;1.75;;;;;;;13.17;100.00;100435.28;7392867;19;20081;-54
2022/05/01 09:01:01;;;;;;;2.78;0.90;;;;;;;13.19;100.00;100447.53;7399807;19;20039;-86
2022/05/01 09:03:28;;;;;;;3.15;1.98;;;;;;;13.17;100.00;100435.28;7397000;19;20026;-86
2022/05/01 09:05:54;;;;;;;5.00;1.38;;;;;;;13.11;100.00;100443.56;7394696;19;20015;-86
2022/05/01 09:08:22;;;;;;;5.90;2.20;;;;;;;13.19;100.00;100443.97;7394732;19;20095;-87
2022/05/01 09:10:48;;;;;;;5.90;1.80;;;;;;;13.32;100.00;100436.84;7394809;19;20018;-84
2022/05/01 09:13:15;;;;;;;5.70;1.65;;;;;;;13.47;100.00;100439.69;7390953;19;20026;-83
2022/05/01 09:15:46;;;;;;;2.60;1.55;;;;;;;13.58;100.00;100449.03;7390329;19;20034;-84
2022/05/01 09:18:16;;;;;;;3.58;1.58;;;;;;;13.64;100.00;100447.09;7389682;19;20022;-84
2022/05/01 09:21:09;;;;;;;6.22;2.33;;;;;;;13.62;100.00;100444.00;7390105;19;20031;-82
2022/05/01 09:23:46;;;;;;;3.25;1.13;;;;;;;13.85;100.00;100444.41;7387537;19;21066;-83
2022/05/01 09:26:14;;;;;;;4.15;1.83;;;;;;;13.95;100.00;100443.03;7390136;19;20014;-85
2022/05/01 09:28:54;;;;;;;3.22;1.65;;;;;;;14.08;100.00;100441.47;7390151;19;20035;-83
2022/05/01 09:31:42;;;;;;;2.42;0.95;;;;;;;14.18;100.00;100444.94;7391917;19;20038;-84
2022/05/01 09:34:42;;;;;;;2.20;1.30;;;;;;;14.24;100.00;100438.16;7390275;19;20038;-84
2022/05/01 09:37:19;;;;;;;1.65;0.80;;;;;;;14.36;100.00;100441.91;7387788;19;20053;-86
2022/05/01 09:39:49;;;;;;;2.92;1.65;;;;;;;14.39;100.00;100443.75;7395731;19;20018;-87
2022/05/01 09:42:19;;;;;;;4.85;1.73;;;;;;;14.36;100.00;100448.31;7398161;19;20418;-90
2022/05/01 09:45:14;;;;;;;2.50;1.08;;;;;;;14.33;100.00;100448.50;7396163;19;20022;-87
2022/05/01 09:47:43;;;;;;;2.65;0.95;;;;;;;14.25;100.00;100447.34;7392462;19;20026;-85
2022/05/01 09:50:10;;;;;;;2.42;1.83;;;;;;;14.20;100.00;100448.81;7392251;19;20117;-90
2022/05/01 09:52:56;;;;;;;2.03;0.80;;;;;;;14.26;100.00;100441.25;7395236;19;20014;-85
2022/05/01 09:55:23;;;;;;;1.95;0.95;;;;;;;14.31;100.00;100443.38;7394397;19;20046;-86
2022/05/01 09:58:00;;;;;;;4.93;1.48;;;;;;;14.50;100.00;100443.91;7398858;19;20070;-89
2022/05/01 10:00:35;;;;;;;1.88;1.00;;;;;;;14.65;100.00;100443.84;7394611;19;20620;-89
2022/05/01 10:03:28;;;;;;;4.20;1.38;;;;;;;14.76;100.00;100450.41;7393271;19;20019;-89
2022/05/01 10:05:57;;;;;;;0.95;0.52;;;;;;;14.75;100.00;100443.22;7395456;19;20010;-87
2022/05/01 10:08:24;;;;;;;6.78;2.42;;;;;;;14.68;100.00;100443.66;7396586;19;20010;-88
2022/05/01 10:10:55;;;;;;;2.13;1.20;;;;;;;14.69;100.00;100439.59;7396517;19;20016;-88
2022/05/01 10:13:24;;;;;;;1.15;0.95;;;;;;;14.71;100.00;100437.06;7393414;19;20014;-88
2022/05/01 10:15:51;;;;;;;3.75;1.60;;;;;;;14.78;100.00;100436.66;7395407;19;20021;-89
2022/05/01 10:18:18;;;;;;;7.78;0.85;;;;;;;14.77;100.00;100439.97;7392792;19;20664;-87
2022/05/01 10:20:44;;;;;;;3.97;1.70;;;;;;;14.76;100.00;100441.22;7395445;19;20018;-84
2022/05/01 10:23:12;;;;;;;3.15;1.10;;;;;;;14.71;100.00;100445.47;7388999;19;20492;-84
2022/05/01 10:25:46;;;;;;;0.80;0.80;;;;;;;14.71;100.00;100442.69;7389108;19;20359;-83
2022/05/01 10:28:33;;;;;;;4.05;1.17;;;;;;;14.80;100.00;100439.75;7391453;19;20054;-85
2022/05/01 10:34:31;;;;;;;5.63;1.13;;;;;;;14.85;100.00;100441.84;7387954;19;20024;-83
2022/05/01 10:37:12;;;;;;;3.05;0.93;;;;;;;14.97;100.00;100437.13;7389219;19;20364;-83
2022/05/01 10:39:40;;;;;;;2.17;1.00;;;;;;;15.00;100.00;100442.56;7392949;19;20658;-85
2022/05/01 10:42:08;;;;;;;4.78;2.25;;;;;;;15.04;100.00;100440.31;7389514;19;20485;-84
2022/05/01 10:44:36;;;;;;;2.30;1.05;;;;;;;15.06;100.00;100440.56;7392816;19;20025;-84
2022/05/01 10:47:14;;;;;;;3.20;1.60;;;;;;;15.09;100.00;100433.97;7392392;19;20018;-84
2022/05/01 10:49:45;;;;;;;1.65;1.08;;;;;;;15.23;100.00;100432.34;7393824;19;20022;-85
2022/05/01 11:01:53;;;;;;;9.60;1.90;;;;;;;15.57;100.00;100427.88;7396075;19;20010;-84
2022/05/01 11:04:21;;;;;;;3.35;0.65;;;;;;;15.72;100.00;100428.53;7397718;19;20015;-84
2022/05/01 11:06:57;;;;;;;1.27;0.70;;;;;;;15.79;100.00;100428.06;7396905;19;20017;-90
2022/05/01 11:09:25;;;;;;;0.90;0.75;;;;;;;15.96;100.00;100423.34;7400168;19;20020;-87
2022/05/01 11:11:59;;;;;;;4.97;1.95;;;;;;;16.27;100.00;100423.34;7400976;19;20792;-87
2022/05/01 11:14:39;;;;;;;1.10;0.80;;;;;;;16.58;100.00;100414.88;7400247;19;20501;-88
2022/05/01 11:17:06;;;;;;;3.92;1.40;;;;;;;16.84;100.00;100413.97;7401366;19;20014;-87
2022/05/01 11:19:53;;;;;;;3.25;0.95;;;;;;;16.98;100.00;100404.56;7401196;19;20090;-87
2022/05/01 11:22:27;;;;;;;3.83;0.70;;;;;;;17.08;100.00;100405.88;7403278;19;20016;-87
2022/05/01 11:24:53;;;;;;;4.65;1.60;;;;;;;17.15;100.00;100402.56;7400662;19;20047;-90
2022/05/01 11:27:21;;;;;;;3.50;1.05;;;;;;;17.29;100.00;100393.91;7398669;19;20017;-90
2022/05/01 11:30:06;;;;;;;1.90;1.00;;;;;;;17.47;100.00;100395.47;7398886;19;20355;-90
2022/05/01 11:32:48;;;;;;;2.67;1.58;;;;;;;17.50;100.00;100386.00;7401545;19;20011;-89
2022/05/01 11:35:14;;;;;;;1.23;0.93;;;;;;;17.54;100.00;100389.38;7402837;19;20006;-89
2022/05/01 11:37:48;;;;;;;2.83;1.23;;;;;;;17.69;100.00;100392.69;7402343;19;20010;-91
2022/05/01 11:40:20;;;;;;;1.70;0.80;;;;;;;17.92;100.00;100377.31;7403523;19;20006;-90
2022/05/01 11:42:47;;;;;;;2.72;0.85;;;;;;;17.79;100.00;100379.88;7398799;19;20007;-90
2022/05/01 11:45:14;;;;;;;3.17;1.33;;;;;;;17.55;100.00;100384.47;7398559;19;20098;-90
2022/05/01 11:47:40;;;;;;;2.20;1.00;;;;;;;17.26;100.00;100388.53;7398679;19;20034;-92
2022/05/01 11:50:15;;;;;;;4.05;0.75;;;;;;;17.01;100.00;100386.66;7399316;19;20078;-91
2022/05/01 11:52:44;;;;;;;1.42;0.52;;;;;;;16.68;100.00;100385.25;7401853;19;20018;-90
2022/05/01 11:55:12;;;;;;;3.45;0.40;;;;;;;16.43;100.00;100386.13;7399085;19;20010;-91
2022/05/01 12:03:07;;;;;;;3.03;1.67;;;;;;;16.52;100.00;100382.38;7393672;19;20479;-82
2022/05/01 12:05:47;;;;;;;1.65;1.17;;;;;;;16.44;100.00;100376.41;7396095;19;20046;-84
2022/05/01 12:08:18;;;;;;;1.17;0.60;;;;;;;16.27;100.00;100384.00;7391448;19;20021;-83
2022/05/01 12:10:45;;;;;;;1.92;0.63;;;;;;;16.21;100.00;100385.22;7396797;19;20647;-83
2022/05/01 12:13:16;;;;;;;3.92;1.10;;;;;;;16.19;100.00;100377.31;7392990;19;20638;-81